Time;durP1;ratioP1;P1;durP2;ratioP2;P2;SDS_P1;SDS_P2;PMS_P1;PMS_P2;Temp;Humidity;BMP_temperature;BMP_pressure;BME280_temperature;BME280_humidity;BME280_pressure;Samples;Min_cycle;Max_cycle;Signal;HPM_P1;HPM_P2
2022/08/25 00:00:19;;;;;;;9.05;6.95;;;23.20;99.90;;;;;;5068975;28;20147;-33
2022/08/25 00:02:45;;;;;;;8.20;5.72;;;23.20;99.90;;;;;;5061242;28;20051;-35
2022/08/25 00:05:12;;;;;;;6.43;5.78;;;23.20;99.90;;;;;;5055870;28;20473;-39
2022/08/25 00:07:38;;;;;;;6.82;6.15;;;23.10;99.90;;;;;;5056143;28;20025;-61
2022/08/25 00:10:05;;;;;;;7.45;5.97;;;23.10;99.90;;;;;;5052152;28;20063;-39
2022/08/25 00:12:31;;;;;;;6.70;5.75;;;23.10;99.90;;;;;;5066896;28;20040;-38
2022/08/25 00:14:57;;;;;;;8.18;5.43;;;23.10;99.90;;;;;;5057522;28;20021;-38
2022/08/25 00:17:23;;;;;;;8.65;5.80;;;23.10;99.90;;;;;;5056144;28;20333;-38
2022/08/25 00:19:49;;;;;;;8.90;6.57;;;23.10;99.90;;;;;;5064056;28;20027;-37
2022/08/25 00:22:14;;;;;;;8.00;6.05;;;23.00;99.90;;;;;;5065624;28;20021;-36
2022/08/25 00:24:40;;;;;;;9.15;6.82;;;23.00;99.90;;;;;;5078388;28;20536;-40
2022/08/25 00:27:06;;;;;;;10.10;6.50;;;23.00;99.90;;;;;;5052013;28;20020;-38
2022/08/25 00:29:32;;;;;;;8.68;6.63;;;23.00;99.90;;;;;;5067991;28;20028;-38
2022/08/25 00:31:59;;;;;;;7.38;5.78;;;23.00;99.90;;;;;;5064299;28;20029;-41
2022/08/25 00:34:30;;;;;;;9.47;6.10;;;22.90;99.90;;;;;;5064750;28;20031;-42
2022/08/25 00:36:56;;;;;;;9.57;6.30;;;22.90;99.90;;;;;;5056629;28;20491;-40
2022/08/25 00:39:23;;;;;;;9.32;5.68;;;22.90;99.90;;;;;;5058972;28;20024;-38
2022/08/25 00:41:50;;;;;;;8.43;6.43;;;22.90;99.90;;;;;;5073938;28;20484;-41
2022/08/25 00:44:17;;;;;;;10.18;6.38;;;22.90;99.90;;;;;;5063612;28;20081;-40
2022/08/25 00:46:56;;;;;;;7.95;6.45;;;22.90;99.90;;;;;;5065295;28;20550;-39
2022/08/25 00:49:34;;;;;;;6.45;5.80;;;22.90;99.90;;;;;;5066122;28;20067;-35
2022/08/25 00:52:04;;;;;;;7.57;5.57;;;22.90;99.90;;;;;;5064807;28;20024;-39
2022/08/25 00:54:40;;;;;;;17.90;6.43;;;22.90;99.90;;;;;;5065361;28;20477;-40
2022/08/25 00:57:09;;;;;;;8.43;5.72;;;22.80;99.90;;;;;;5062085;28;20047;-41
2022/08/25 00:59:35;;;;;;;6.45;5.78;;;22.80;99.90;;;;;;5071416;28;20071;-39
2022/08/25 01:02:02;;;;;;;7.88;6.32;;;22.80;99.90;;;;;;5060730;28;20480;-41
2022/08/25 01:04:28;;;;;;;7.82;5.75;;;22.70;99.90;;;;;;5067581;28;20021;-41
2022/08/25 01:06:55;;;;;;;7.90;5.90;;;22.80;99.90;;;;;;5066227;28;20020;-45
2022/08/25 01:09:20;;;;;;;5.53;4.93;;;22.70;99.90;;;;;;5060098;28;20107;-41
2022/08/25 01:11:47;;;;;;;6.35;5.57;;;22.70;99.90;;;;;;5062803;28;20448;-38
2022/08/25 01:14:17;;;;;;;5.40;4.90;;;22.60;99.90;;;;;;5064088;28;20025;-42
2022/08/25 01:16:44;;;;;;;6.00;5.38;;;22.60;99.90;;;;;;5068115;28;20750;-39
2022/08/25 01:19:12;;;;;;;9.55;5.07;;;22.60;99.90;;;;;;5062698;28;20032;-41
2022/08/25 01:21:42;;;;;;;10.57;5.82;;;22.50;99.90;;;;;;5055016;28;20036;-38
2022/08/25 01:24:14;;;;;;;8.07;6.38;;;22.50;99.90;;;;;;5061089;28;20489;-60
2022/08/25 01:26:40;;;;;;;9.85;6.35;;;22.40;99.90;;;;;;5065431;28;20024;-69
2022/08/25 01:29:20;;;;;;;6.75;6.03;;;22.40;99.90;;;;;;5067000;28;20031;-39
2022/08/25 01:31:51;;;;;;;6.03;5.43;;;22.40;99.90;;;;;;5054556;28;20427;-59
2022/08/25 01:34:20;;;;;;;5.72;5.13;;;22.40;99.90;;;;;;5061419;28;20410;-37
2022/08/25 01:36:47;;;;;;;7.85;5.47;;;22.30;99.90;;;;;;5067464;28;20469;-40
2022/08/25 01:39:13;;;;;;;9.23;5.28;;;22.30;99.90;;;;;;5061847;28;20024;-37
2022/08/25 01:41:52;;;;;;;6.50;5.32;;;22.30;99.90;;;;;;5055985;28;20492;-35
2022/08/25 01:44:18;;;;;;;7.22;6.00;;;22.30;99.90;;;;;;5066280;28;20032;-38
2022/08/25 01:46:43;;;;;;;5.65;5.15;;;22.20;99.90;;;;;;5059267;28;20025;-40
2022/08/25 01:49:12;;;;;;;7.53;5.57;;;22.30;99.90;;;;;;5063651;28;20035;-53
2022/08/25 01:51:51;;;;;;;6.50;5.65;;;22.30;99.90;;;;;;5057114;28;20041;-39
2022/08/25 01:54:17;;;;;;;7.28;5.72;;;22.30;99.90;;;;;;5066973;28;20036;-35
2022/08/25 01:56:43;;;;;;;6.93;6.18;;;22.20;99.90;;;;;;5065616;28;20052;-41
2022/08/25 01:59:09;;;;;;;10.07;6.22;;;22.20;99.90;;;;;;5064522;28;20542;-42
2022/08/25 02:01:34;;;;;;;12.82;6.22;;;22.20;99.90;;;;;;5069678;28;20054;-41
2022/08/25 02:04:00;;;;;;;5.57;4.95;;;22.20;99.90;;;;;;5058754;28;20466;-40
2022/08/25 02:06:31;;;;;;;6.43;5.63;;;22.10;99.90;;;;;;5055490;28;20485;-38
2022/08/25 02:09:00;;;;;;;7.78;5.20;;;22.10;99.90;;;;;;5066297;28;20155;-41
2022/08/25 02:11:26;;;;;;;5.60;5.10;;;22.10;99.90;;;;;;5065394;28;20374;-38
2022/08/25 02:13:52;;;;;;;7.95;5.40;;;22.10;99.90;;;;;;5059583;28;20032;-41
2022/08/25 02:16:23;;;;;;;6.80;6.10;;;22.00;99.90;;;;;;5072196;28;20025;-42
2022/08/25 02:18:49;;;;;;;7.20;5.40;;;22.00;99.90;;;;;;5070195;28;20024;-40
2022/08/25 02:21:15;;;;;;;7.00;5.20;;;22.00;99.90;;;;;;5073653;28;20373;-42
2022/08/25 02:23:41;;;;;;;6.25;4.75;;;22.00;99.90;;;;;;5061098;28;20080;-40
2022/08/25 02:26:08;;;;;;;8.02;5.22;;;22.00;99.90;;;;;;5070868;28;20477;-40
2022/08/25 02:28:36;;;;;;;6.32;5.72;;;22.00;99.90;;;;;;5056796;28;20027;-34
2022/08/25 02:31:02;;;;;;;;;;;21.90;99.90;;;;;;5076156;28;20063;-36
2022/08/25 02:33:28;;;;;;;5.20;4.70;;;22.00;99.90;;;;;;5065301;28;19908;-34
2022/08/25 02:35:57;;;;;;;5.35;4.85;;;21.90;99.90;;;;;;5061502;28;20798;-34
2022/08/25 02:38:22;;;;;;;6.82;5.07;;;21.90;99.90;;;;;;5070708;28;20025;-54
2022/08/25 02:40:49;;;;;;;4.70;4.30;;;21.90;99.90;;;;;;5068598;28;20024;-33
2022/08/25 02:43:15;;;;;;;5.72;5.03;;;21.90;99.90;;;;;;5062325;28;20606;-50
2022/08/25 02:45:40;;;;;;;6.32;4.78;;;21.80;99.90;;;;;;5060457;28;20100;-33
2022/08/25 02:48:06;;;;;;;7.47;4.82;;;21.80;99.90;;;;;;5052886;28;20104;-36
2022/08/25 02:50:32;;;;;;;5.50;4.35;;;21.80;99.90;;;;;;5056229;28;20032;-38
2022/08/25 02:52:57;;;;;;;4.90;4.40;;;21.80;99.90;;;;;;5053881;28;20372;-36
2022/08/25 02:55:23;;;;;;;4.80;4.40;;;21.80;99.90;;;;;;5054625;28;20036;-36
2022/08/25 02:57:49;;;;;;;6.57;4.45;;;21.80;99.90;;;;;;5059250;28;20025;-36
2022/08/25 03:00:15;;;;;;;19.13;4.43;;;21.80;99.90;;;;;;5064493;28;20035;-37
2022/08/25 03:02:42;;;;;;;4.63;4.00;;;21.80;99.90;;;;;;5057901;28;20382;-40
2022/08/25 03:05:09;;;;;;;4.55;3.85;;;21.90;99.90;;;;;;5072430;28;20539;-40
2022/08/25 03:07:36;;;;;;;5.65;4.13;;;21.90;99.90;;;;;;5060763;28;20026;-37
2022/08/25 03:10:08;;;;;;;5.43;4.05;;;21.90;99.90;;;;;;5055758;28;20439;-38
2022/08/25 03:12:34;;;;;;;4.00;3.70;;;21.90;99.90;;;;;;5053542;28;20465;-38
2022/08/25 03:14:59;;;;;;;6.00;4.13;;;22.00;99.90;;;;;;5057006;28;20044;-39
2022/08/25 03:17:25;;;;;;;12.77;4.28;;;22.00;99.90;;;;;;5055287;28;20365;-39
2022/08/25 03:19:51;;;;;;;5.28;3.88;;;22.10;99.90;;;;;;5066840;28;20029;-36
2022/08/25 03:22:16;;;;;;;5.72;3.90;;;22.20;99.90;;;;;;5061142;28;20527;-37
2022/08/25 03:24:42;;;;;;;5.88;3.33;;;22.40;99.90;;;;;;5053405;28;20035;-38
2022/08/25 03:27:07;;;;;;;3.70;3.28;;;22.50;99.90;;;;;;5059970;28;20033;-35
2022/08/25 03:29:33;;;;;;;3.78;3.08;;;22.70;99.90;;;;;;5063167;28;20514;-35
2022/08/25 03:31:59;;;;;;;3.30;3.05;;;22.80;99.90;;;;;;5058263;28;20024;-43
2022/08/25 03:34:27;;;;;;;3.28;3.00;;;22.90;99.90;;;;;;5068793;28;20031;-42
2022/08/25 03:36:54;;;;;;;3.00;2.72;;;23.00;99.90;;;;;;5059449;28;20053;-36
2022/08/25 03:39:22;;;;;;;4.90;3.50;;;23.00;99.90;;;;;;5066418;28;20024;-38
2022/08/25 03:41:50;;;;;;;3.53;3.22;;;23.10;99.90;;;;;;5056386;28;20029;-35
2022/08/25 03:44:16;;;;;;;5.95;3.30;;;23.10;99.90;;;;;;5062221;28;20024;-35
2022/08/25 03:46:45;;;;;;;5.50;2.83;;;23.20;99.90;;;;;;5058197;28;20021;-42
2022/08/25 03:49:23;;;;;;;9.10;3.42;;;23.20;99.90;;;;;;5051890;28;20024;-36
2022/08/25 03:51:49;;;;;;;;;;;23.20;99.90;;;;;;5061770;28;20524;-34
2022/08/25 03:54:18;;;;;;;4.45;2.95;;;23.20;99.90;;;;;;5057909;28;19919;-39
2022/08/25 03:56:44;;;;;;;6.72;3.13;;;23.20;99.90;;;;;;5057439;28;20511;-38
2022/08/25 03:59:10;;;;;;;2.97;2.55;;;23.20;99.90;;;;;;5064769;28;20024;-37
2022/08/25 04:01:41;;;;;;;9.02;2.92;;;23.20;99.90;;;;;;5055656;28;20496;-43
2022/08/25 04:04:09;;;;;;;3.40;2.90;;;23.20;99.90;;;;;;5063140;28;20064;-47
2022/08/25 04:06:35;;;;;;;6.97;2.67;;;23.20;99.90;;;;;;5063613;28;20027;-41
2022/08/25 04:09:00;;;;;;;2.95;2.70;;;23.20;99.90;;;;;;5069425;28;20058;-39
2022/08/25 04:11:26;;;;;;;4.95;3.17;;;23.20;99.90;;;;;;5053355;28;20058;-42
2022/08/25 04:13:56;;;;;;;6.40;3.08;;;23.20;99.90;;;;;;5060611;28;20151;-38
2022/08/25 04:16:24;;;;;;;4.13;3.08;;;23.20;99.90;;;;;;5075682;28;20526;-37
2022/08/25 04:18:52;;;;;;;4.03;3.00;;;23.10;99.90;;;;;;5061809;28;20074;-35
2022/08/25 04:21:19;;;;;;;11.25;2.97;;;23.10;99.90;;;;;;5061213;28;20159;-38
2022/08/25 04:23:47;;;;;;;4.28;2.90;;;23.10;99.90;;;;;;5062513;28;20017;-42
2022/08/25 04:26:41;;;;;;;6.15;3.00;;;23.10;99.90;;;;;;5055858;28;20040;-38
2022/08/25 04:29:09;;;;;;;5.32;2.50;;;23.10;99.90;;;;;;5061923;28;20059;-39
2022/08/25 04:31:35;;;;;;;12.77;4.55;;;23.10;99.90;;;;;;5067444;28;20443;-40
2022/08/25 04:34:02;;;;;;;5.15;2.90;;;23.10;99.90;;;;;;5053616;28;20070;-42
2022/08/25 04:36:28;;;;;;;;;;;23.10;99.90;;;;;;5064564;28;20020;-43
2022/08/25 04:38:53;;;;;;;3.28;2.97;;;23.00;99.90;;;;;;5057315;28;19919;-42
2022/08/25 04:41:22;;;;;;;5.68;3.22;;;23.00;99.90;;;;;;5064549;28;20090;-41
2022/08/25 04:43:48;;;;;;;4.80;2.85;;;23.00;99.90;;;;;;5062018;28;20016;-38
2022/08/25 04:46:19;;;;;;;7.03;2.67;;;23.10;99.90;;;;;;5066929;28;20606;-39
2022/08/25 04:48:45;;;;;;;4.20;3.05;;;23.00;99.90;;;;;;5055769;28;20028;-36
2022/08/25 04:51:14;;;;;;;5.80;2.88;;;23.00;99.90;;;;;;5066301;28;20040;-39
2022/08/25 04:53:40;;;;;;;5.70;3.17;;;23.00;99.90;;;;;;5066141;28;20433;-41
2022/08/25 04:56:08;;;;;;;5.63;2.90;;;23.00;99.90;;;;;;5066918;28;20435;-43
2022/08/25 04:58:35;;;;;;;6.30;3.22;;;23.10;99.90;;;;;;5064700;28;20025;-37
2022/08/25 05:01:04;;;;;;;4.70;3.00;;;23.00;99.90;;;;;;5060894;28;20063;-39
2022/08/25 05:03:30;;;;;;;3.22;2.72;;;23.10;99.90;;;;;;5066146;28;20387;-39
2022/08/25 05:05:56;;;;;;;5.13;2.67;;;23.00;99.90;;;;;;5068115;28;20103;-42
2022/08/25 05:08:21;;;;;;;9.80;3.13;;;23.00;99.90;;;;;;5063049;28;20036;-38
2022/08/25 05:10:47;;;;;;;6.72;2.90;;;23.00;99.90;;;;;;5065230;28;20047;-38
2022/08/25 05:13:12;;;;;;;3.95;2.88;;;22.90;99.90;;;;;;5062136;28;20025;-38
2022/08/25 05:15:50;;;;;;;7.57;2.90;;;23.00;99.90;;;;;;5067730;28;20476;-37
2022/08/25 05:18:18;;;;;;;9.95;2.40;;;23.00;99.90;;;;;;5067962;28;20028;-38
2022/08/25 05:20:43;;;;;;;;;;;23.00;99.90;;;;;;5067744;28;20033;-40
2022/08/25 05:23:09;;;;;;;6.32;2.80;;;23.00;99.90;;;;;;5070130;28;19985;-39
2022/08/25 05:25:35;;;;;;;9.50;2.78;;;23.00;99.90;;;;;;5067731;28;20045;-36
2022/08/25 05:28:01;;;;;;;3.10;2.50;;;22.90;99.90;;;;;;5073448;28;20067;-36
2022/08/25 05:30:27;;;;;;;2.67;2.30;;;22.90;99.90;;;;;;5068258;28;20033;-37
2022/08/25 05:32:52;;;;;;;7.63;3.22;;;22.90;99.90;;;;;;5068227;28;20507;-38
2022/08/25 05:35:19;;;;;;;8.57;2.60;;;22.90;99.90;;;;;;5070259;28;20029;-37
2022/08/25 05:37:45;;;;;;;3.95;2.58;;;22.90;99.90;;;;;;5073215;28;20495;-40
2022/08/25 05:40:11;;;;;;;3.85;2.75;;;22.90;99.90;;;;;;5070106;28;20029;-40
2022/08/25 05:42:37;;;;;;;4.40;2.47;;;22.90;99.90;;;;;;5068619;28;20086;-39
2022/08/25 05:45:06;;;;;;;6.25;2.50;;;22.90;99.90;;;;;;5068697;28;20037;-37
2022/08/25 05:47:32;;;;;;;6.15;3.08;;;22.90;99.90;;;;;;5068284;28;20477;-34
2022/08/25 05:49:58;;;;;;;5.93;2.95;;;22.90;99.90;;;;;;5068271;28;20036;-33
2022/08/25 05:52:26;;;;;;;5.13;2.78;;;23.00;99.90;;;;;;5069702;28;20389;-39
2022/08/25 05:54:52;;;;;;;4.30;2.38;;;23.00;99.90;;;;;;5067644;28;20024;-32
2022/08/25 05:57:37;;;;;;;3.45;2.50;;;23.10;99.90;;;;;;5073568;28;20055;-40
2022/08/25 06:00:05;;;;;;;7.32;2.60;;;23.20;99.90;;;;;;5069155;28;20488;-38
2022/08/25 06:02:45;;;;;;;4.22;2.65;;;23.30;99.90;;;;;;5076729;28;20090;-38
2022/08/25 06:05:17;;;;;;;3.38;2.63;;;23.30;99.90;;;;;;5086417;28;20032;-34
2022/08/25 06:07:48;;;;;;;6.40;3.00;;;23.40;99.90;;;;;;5072595;28;20032;-38
2022/08/25 06:10:15;;;;;;;2.72;2.47;;;23.50;99.90;;;;;;5069339;28;20028;-37
2022/08/25 06:12:43;;;;;;;3.30;2.30;;;23.50;99.90;;;;;;5070862;28;20500;-39
2022/08/25 06:15:14;;;;;;;3.65;2.42;;;23.60;99.90;;;;;;5063557;28;20025;-33
2022/08/25 06:17:41;;;;;;;4.00;2.22;;;23.60;99.90;;;;;;5056160;28;20096;-39
2022/08/25 06:20:21;;;;;;;3.42;2.10;;;23.70;99.90;;;;;;5067186;28;20083;-39
2022/08/25 06:22:48;;;;;;;5.30;2.72;;;23.70;99.90;;;;;;5071458;28;20028;-37
2022/08/25 06:25:15;;;;;;;8.75;2.80;;;23.80;99.90;;;;;;5064748;28;20112;-37
2022/08/25 06:27:41;;;;;;;5.15;2.00;;;23.80;99.90;;;;;;5071461;28;20511;-38
2022/08/25 06:30:10;;;;;;;7.00;2.38;;;23.80;99.90;;;;;;5066115;28;20078;-53
2022/08/25 06:32:38;;;;;;;2.33;2.08;;;23.90;99.90;;;;;;5068624;28;20021;-42
2022/08/25 06:35:10;;;;;;;5.07;2.35;;;24.00;99.90;;;;;;5073689;28;20115;-38
2022/08/25 06:37:36;;;;;;;5.25;2.50;;;24.10;99.90;;;;;;5074815;28;20032;-39
2022/08/25 06:40:04;;;;;;;9.45;2.38;;;24.00;99.90;;;;;;5060986;28;20551;-39
2022/08/25 06:42:31;;;;;;;4.22;2.70;;;24.10;99.90;;;;;;5067585;28;20469;-40
2022/08/25 06:44:56;;;;;;;9.65;2.63;;;24.10;99.90;;;;;;5072123;28;20044;-42
2022/08/25 06:47:22;;;;;;;2.17;2.08;;;24.20;99.90;;;;;;5061733;28;20040;-38
2022/08/25 06:49:47;;;;;;;9.77;3.08;;;24.20;99.90;;;;;;5058767;28;20025;-33
2022/08/25 06:52:13;;;;;;;4.32;2.60;;;24.10;99.90;;;;;;5059457;28;20039;-37
2022/08/25 06:54:40;;;;;;;6.32;2.97;;;24.10;99.90;;;;;;5060605;28;20505;-40
2022/08/25 06:57:07;;;;;;;5.07;2.70;;;24.10;99.90;;;;;;5060001;28;20040;-35
2022/08/25 06:59:34;;;;;;;8.48;3.17;;;24.00;99.90;;;;;;5056294;28;20392;-32
2022/08/25 07:02:00;;;;;;;3.90;2.42;;;24.10;99.90;;;;;;5064336;28;20476;-33
2022/08/25 07:04:26;;;;;;;6.20;2.60;;;24.30;99.90;;;;;;5056688;28;20021;-31
2022/08/25 07:06:52;;;;;;;6.13;2.55;;;24.40;99.90;;;;;;5052300;28;20037;-31
2022/08/25 07:09:18;;;;;;;6.45;2.10;;;24.60;99.90;;;;;;5058445;28;20116;-39
2022/08/25 07:11:44;;;;;;;3.13;1.92;;;24.70;99.90;;;;;;5065079;28;20132;-34
2022/08/25 07:14:12;;;;;;;4.00;2.13;;;24.80;99.70;;;;;;5055240;28;20434;-32
2022/08/25 07:16:39;;;;;;;4.68;2.53;;;24.80;99.80;;;;;;5053459;28;20017;-31
2022/08/25 07:19:05;;;;;;;2.95;2.25;;;24.80;99.60;;;;;;5052296;28;20384;-31
2022/08/25 07:21:33;;;;;;;6.03;2.25;;;24.90;99.70;;;;;;5059086;28;20021;-34
2022/08/25 07:24:00;;;;;;;3.83;2.42;;;25.00;99.70;;;;;;5053851;28;20032;-33
2022/08/25 07:26:29;;;;;;;20.88;2.65;;;25.10;99.80;;;;;;5055463;28;20048;-34
2022/08/25 07:28:57;;;;;;;7.38;2.65;;;25.20;99.90;;;;;;5055326;28;20063;-32
2022/08/25 07:31:23;;;;;;;9.48;2.38;;;25.30;99.80;;;;;;5058245;28;20055;-35
2022/08/25 07:36:33;;;;;;;3.72;2.30;;;25.60;99.50;;;;;;5067564;28;20047;-32
2022/08/25 07:39:04;;;;;;;4.85;2.63;;;25.80;99.30;;;;;;5067183;28;20021;-32
2022/08/25 07:41:30;;;;;;;3.13;2.03;;;26.00;99.20;;;;;;5070054;28;20104;-32
2022/08/25 07:43:56;;;;;;;3.70;2.43;;;26.10;98.70;;;;;;5062219;28;20021;-41
2022/08/25 07:46:21;;;;;;;5.75;2.47;;;26.20;98.70;;;;;;5056541;28;20021;-34
2022/08/25 07:48:47;;;;;;;5.63;2.10;;;26.30;98.40;;;;;;5058520;28;20040;-39
2022/08/25 07:51:14;;;;;;;10.00;2.10;;;26.40;98.80;;;;;;5066975;28;20488;-38
2022/08/25 07:53:40;;;;;;;3.90;2.75;;;26.60;98.90;;;;;;5064600;28;20461;-40
2022/08/25 07:56:14;;;;;;;7.13;2.75;;;26.70;98.70;;;;;;5057887;28;20166;-38
2022/08/25 07:58:41;;;;;;;9.30;4.22;;;26.90;98.00;;;;;;5063433;28;20369;-38
2022/08/25 08:01:12;;;;;;;3.55;2.78;;;27.10;97.70;;;;;;5059199;28;20461;-37
2022/08/25 08:03:38;;;;;;;4.18;2.40;;;27.10;97.90;;;;;;5061805;28;20025;-39
2022/08/25 08:06:11;;;;;;;6.30;1.98;;;27.20;97.90;;;;;;5063898;28;20373;-39
2022/08/25 08:08:44;;;;;;;1.95;1.77;;;27.20;97.80;;;;;;5062606;28;20495;-39
2022/08/25 08:11:31;;;;;;;8.45;3.15;;;27.30;98.10;;;;;;5063239;28;20108;-44
2022/08/25 08:13:58;;;;;;;2.90;1.98;;;27.40;98.30;;;;;;5057091;28;20778;-38
2022/08/25 08:16:26;;;;;;;7.07;2.45;;;27.50;97.60;;;;;;5056148;28;20459;-38
2022/08/25 08:18:52;;;;;;;4.60;2.33;;;27.60;97.70;;;;;;5068270;28;20025;-40
2022/08/25 08:21:31;;;;;;;4.43;2.30;;;27.80;97.60;;;;;;5068787;28;20020;-39
2022/08/25 08:23:57;;;;;;;2.50;1.98;;;27.80;97.30;;;;;;5059337;28;20105;-37
2022/08/25 08:26:24;;;;;;;3.03;2.15;;;27.90;97.40;;;;;;5057247;28;20033;-39
2022/08/25 08:28:50;;;;;;;3.38;2.00;;;28.00;97.20;;;;;;5057118;28;20094;-39
2022/08/25 08:31:21;;;;;;;2.80;2.40;;;28.10;97.10;;;;;;5051344;28;20067;-33
2022/08/25 08:33:48;;;;;;;3.47;2.30;;;28.00;97.10;;;;;;5065907;28;20033;-38
2022/08/25 08:36:21;;;;;;;2.60;1.85;;;28.10;97.30;;;;;;5058554;28;20104;-34
2022/08/25 08:38:52;;;;;;;6.18;2.60;;;28.20;97.70;;;;;;5057772;28;20041;-41
2022/08/25 08:45:06;;;;;;;2.42;2.00;;;28.60;97.00;;;;;;5068169;28;20050;-42
2022/08/25 08:48:09;;;;;;;2.90;1.90;;;29.00;96.80;;;;;;5075499;28;20325;-41
2022/08/25 08:50:46;;;;;;;3.20;1.95;;;29.10;96.30;;;;;;5069472;28;20031;-39
2022/08/25 08:53:21;;;;;;;4.35;2.10;;;29.20;96.10;;;;;;5059747;28;20021;-41
2022/08/25 08:55:57;;;;;;;2.05;1.90;;;29.30;96.40;;;;;;5066469;28;20056;-33
2022/08/25 08:58:44;;;;;;;2.47;1.80;;;29.40;96.20;;;;;;5066837;28;20065;-37
2022/08/25 09:01:14;;;;;;;3.83;2.38;;;29.60;96.10;;;;;;5056820;28;20461;-39
2022/08/25 09:03:58;;;;;;;3.90;2.05;;;29.80;95.90;;;;;;5064280;28;20032;-38
2022/08/25 09:06:39;;;;;;;4.35;2.10;;;29.90;95.60;;;;;;5072042;28;20379;-38
2022/08/25 09:09:09;;;;;;;4.88;2.15;;;30.00;95.90;;;;;;5067079;28;20582;-42
2022/08/25 09:11:45;;;;;;;5.38;2.25;;;30.10;95.40;;;;;;5066811;28;20059;-37
2022/08/25 09:14:37;;;;;;;5.75;1.77;;;30.20;95.30;;;;;;5071038;28;20028;-38
2022/08/25 09:17:24;;;;;;;1.67;1.58;;;30.30;95.00;;;;;;5062990;28;20156;-38
2022/08/25 09:19:55;;;;;;;9.68;1.95;;;30.40;95.10;;;;;;5075116;28;20122;-42
2022/08/25 09:22:40;;;;;;;3.03;1.98;;;30.60;95.10;;;;;;5072558;28;20124;-40
2022/08/25 09:25:36;;;;;;;7.20;2.00;;;31.00;94.60;;;;;;5031518;28;20097;-39
2022/08/25 09:28:14;;;;;;;2.10;1.80;;;31.20;94.00;;;;;;5042140;28;20029;-37
2022/08/25 09:31:04;;;;;;;3.92;2.10;;;31.30;94.00;;;;;;5044083;28;20029;-42
2022/08/25 09:33:33;;;;;;;4.57;2.47;;;31.50;94.00;;;;;;5034614;28;20496;-46
2022/08/25 09:35:59;;;;;;;3.03;1.73;;;31.70;93.70;;;;;;5023033;28;20563;-31
2022/08/25 09:38:29;;;;;;;4.38;2.15;;;31.90;93.20;;;;;;5025448;28;20112;-38
2022/08/25 09:40:58;;;;;;;2.00;1.75;;;32.00;93.30;;;;;;5027855;28;20065;-36
2022/08/25 09:43:43;;;;;;;5.07;2.00;;;32.10;92.30;;;;;;5025529;28;20569;-33
2022/08/25 09:46:15;;;;;;;5.97;2.10;;;32.10;92.80;;;;;;5028656;28;20034;-32
2022/08/25 09:49:33;;;;;;;2.03;1.83;;;32.30;92.80;;;;;;5026991;28;20037;-36
2022/08/25 09:52:21;;;;;;;6.70;2.63;;;32.50;92.80;;;;;;5018008;28;20871;-34
2022/08/25 09:54:49;;;;;;;8.02;2.28;;;32.80;93.00;;;;;;5028288;28;20025;-35
2022/08/25 09:57:32;;;;;;;5.57;2.70;;;33.20;92.70;;;;;;5065840;28;20492;-34
2022/08/25 10:00:17;;;;;;;5.32;1.95;;;33.80;92.10;;;;;;5062733;28;20642;-33
2022/08/25 10:02:59;;;;;;;5.40;2.03;;;34.00;92.10;;;;;;5063704;28;20062;-31
2022/08/25 10:05:25;;;;;;;4.45;2.85;;;34.00;91.50;;;;;;5053407;28;20403;-36
2022/08/25 10:07:58;;;;;;;4.15;1.83;;;34.00;91.90;;;;;;5063289;28;20045;-36
2022/08/25 10:10:36;;;;;;;14.40;4.60;;;34.10;91.40;;;;;;5056609;28;20484;-36
2022/08/25 10:13:18;;;;;;;3.53;2.00;;;34.10;92.00;;;;;;5062150;28;20033;-35
2022/08/25 10:15:44;;;;;;;8.38;1.85;;;34.20;91.20;;;;;;5053190;28;20556;-36
2022/08/25 10:18:19;;;;;;;1.50;1.40;;;34.20;90.10;;;;;;5053427;28;20088;-35
2022/08/25 10:21:00;;;;;;;2.92;1.67;;;34.10;90.10;;;;;;5058443;28;20111;-41
2022/08/25 10:23:26;;;;;;;1.98;1.77;;;34.10;90.00;;;;;;5056206;28;20461;-37
2022/08/25 10:26:12;;;;;;;2.92;2.22;;;34.00;90.10;;;;;;5060412;28;20078;-47
2022/08/25 10:28:55;;;;;;;;;;;34.00;89.90;;;;;;5074492;28;20033;-45
2022/08/25 10:31:54;;;;;;;2.22;2.00;;;34.10;89.90;;;;;;5068746;28;19919;-40
2022/08/25 10:34:43;;;;;;;4.15;1.75;;;34.10;90.20;;;;;;5083164;28;20557;-39
2022/08/25 10:37:33;;;;;;;2.63;1.60;;;34.20;88.90;;;;;;5052775;28;20033;-33
2022/08/25 10:40:01;;;;;;;4.75;2.38;;;34.10;88.60;;;;;;5052648;28;20028;-34
2022/08/25 10:42:56;;;;;;;2.35;2.00;;;34.20;88.00;;;;;;5052791;28;20025;-34
2022/08/25 10:45:42;;;;;;;1.85;1.40;;;34.30;88.40;;;;;;5052653;28;20029;-33
2022/08/25 10:48:26;;;;;;;7.78;2.10;;;34.20;87.30;;;;;;5052479;28;20016;-31
2022/08/25 10:51:31;;;;;;;2.15;1.60;;;34.10;87.90;;;;;;5056758;28;20028;-34
2022/08/25 10:54:19;;;;;;;2.05;1.75;;;33.80;88.60;;;;;;5051964;28;20036;-32
2022/08/25 10:57:03;;;;;;;2.05;1.85;;;33.50;86.50;;;;;;5071861;28;20033;-33
2022/08/25 10:59:47;;;;;;;4.93;1.75;;;33.50;87.40;;;;;;5052643;28;20078;-46
2022/08/25 11:02:56;;;;;;;1.65;1.50;;;33.70;86.10;;;;;;5064541;28;20025;-31
2022/08/25 11:05:45;;;;;;;4.57;1.73;;;33.90;85.70;;;;;;5061757;28;20029;-38
2022/08/25 11:08:29;;;;;;;1.73;1.45;;;34.00;84.40;;;;;;5064691;28;20035;-38
2022/08/25 11:11:04;;;;;;;3.70;1.50;;;34.10;84.80;;;;;;5054970;28;20579;-63
2022/08/25 11:13:55;;;;;;;6.60;1.30;;;34.10;84.30;;;;;;5057600;28;20495;-59
2022/08/25 11:16:45;;;;;;;2.50;1.70;;;33.90;82.30;;;;;;5059827;28;20273;-37
2022/08/25 11:19:35;;;;;;;2.20;1.35;;;33.60;83.00;;;;;;5067249;28;20021;-40
2022/08/25 11:22:16;;;;;;;2.38;1.30;;;33.40;82.70;;;;;;5054648;28;20519;-37
2022/08/25 11:25:02;;;;;;;3.72;2.00;;;33.30;82.80;;;;;;5058104;28;20376;-38
2022/08/25 11:27:37;;;;;;;6.18;1.70;;;33.10;83.50;;;;;;5055157;28;20041;-39
2022/08/25 11:30:07;;;;;;;4.00;1.35;;;32.90;83.20;;;;;;5061603;28;20028;-38
2022/08/25 11:32:53;;;;;;;2.08;1.50;;;32.80;85.00;;;;;;5052207;28;20060;-37
2022/08/25 11:35:46;;;;;;;7.53;1.65;;;32.70;83.00;;;;;;5065160;28;20366;-39
2022/08/25 11:38:37;;;;;;;1.65;1.42;;;32.70;84.00;;;;;;5065224;28;20044;-38
2022/08/25 11:41:10;;;;;;;3.70;1.50;;;32.70;84.40;;;;;;5058148;28;20037;-36
2022/08/25 11:44:06;;;;;;;5.13;1.80;;;32.80;85.70;;;;;;5051876;28;20392;-40
2022/08/25 11:46:32;;;;;;;4.25;1.88;;;33.00;85.20;;;;;;5051532;28;20060;-37
2022/08/25 11:49:18;;;;;;;3.03;1.57;;;33.10;84.90;;;;;;5051883;28;20024;-37
2022/08/25 11:51:46;;;;;;;;;;;33.20;85.40;;;;;;5059556;28;20051;-48
2022/08/25 11:54:47;;;;;;;2.13;1.70;;;33.50;85.90;;;;;;5057300;28;20245;-38
2022/08/25 11:57:15;;;;;;;4.10;1.88;;;33.80;85.40;;;;;;5055723;28;20070;-45
2022/08/25 11:59:56;;;;;;;2.13;1.60;;;34.00;85.20;;;;;;5061703;28;20029;-37
2022/08/25 12:02:44;;;;;;;3.38;1.58;;;34.30;84.00;;;;;;5054482;28;20475;-38
2022/08/25 12:05:20;;;;;;;1.60;1.50;;;34.50;84.70;;;;;;5053919;28;20061;-39
2022/08/25 12:07:46;;;;;;;2.33;2.00;;;34.60;83.80;;;;;;5054365;28;20025;-38
2022/08/25 12:10:13;;;;;;;9.37;1.93;;;34.80;82.80;;;;;;5061302;28;20430;-47
2022/08/25 12:12:42;;;;;;;4.28;1.77;;;34.80;83.70;;;;;;5053211;28;20071;-39
2022/08/25 12:15:26;;;;;;;5.43;2.00;;;34.80;82.50;;;;;;5052603;28;20029;-39
2022/08/25 12:18:30;;;;;;;2.10;1.65;;;34.80;81.80;;;;;;5054763;28;20024;-41
2022/08/25 12:20:56;;;;;;;6.00;1.80;;;34.80;82.60;;;;;;5050290;28;20049;-38
2022/08/25 12:23:31;;;;;;;3.67;1.60;;;34.80;81.80;;;;;;5063150;28;20052;-38
2022/08/25 12:26:35;;;;;;;2.00;1.90;;;34.80;81.20;;;;;;5051491;28;20028;-39
2022/08/25 12:29:29;;;;;;;5.50;1.88;;;34.70;81.50;;;;;;5051512;28;20032;-42
2022/08/25 12:32:30;;;;;;;2.05;1.77;;;34.60;81.90;;;;;;5059307;28;20021;-41
2022/08/25 12:35:14;;;;;;;3.67;1.55;;;34.50;82.10;;;;;;5064302;28;20031;-42
2022/08/25 12:37:57;;;;;;;2.90;1.90;;;34.70;82.50;;;;;;5052547;28;20049;-37
2022/08/25 12:40:31;;;;;;;1.90;1.80;;;34.90;80.50;;;;;;5051357;28;20025;-38
2022/08/25 12:43:10;;;;;;;3.70;1.80;;;35.00;80.20;;;;;;5055490;28;20029;-38
2022/08/25 12:45:41;;;;;;;3.17;1.60;;;35.00;80.60;;;;;;5061104;28;20012;-40
2022/08/25 12:48:25;;;;;;;2.40;1.85;;;35.00;80.60;;;;;;5065566;28;20042;-40
2022/08/25 12:51:17;;;;;;;4.63;2.20;;;35.10;80.00;;;;;;5070061;28;20166;-37
2022/08/25 12:54:09;;;;;;;2.30;2.10;;;35.20;80.60;;;;;;5054157;28;20111;-40
2022/08/25 12:56:40;;;;;;;4.78;1.60;;;35.20;80.90;;;;;;5050953;28;20159;-38
2022/08/25 12:59:15;;;;;;;1.60;1.50;;;35.30;79.00;;;;;;5051112;28;20436;-39
2022/08/25 13:01:59;;;;;;;2.60;1.70;;;35.40;80.10;;;;;;5060160;28;20020;-39
2022/08/25 13:04:37;;;;;;;5.05;1.65;;;35.60;80.50;;;;;;5056557;28;20025;-40
2022/08/25 13:07:12;;;;;;;2.60;2.20;;;35.70;80.70;;;;;;5069785;28;20044;-57
2022/08/25 13:10:15;;;;;;;3.90;1.63;;;35.70;80.20;;;;;;5051126;28;20052;-51
2022/08/25 13:12:51;;;;;;;3.70;2.00;;;35.70;80.10;;;;;;5063122;28;20040;-38
2022/08/25 13:15:56;;;;;;;5.40;2.17;;;35.70;79.30;;;;;;5066478;28;20082;-38
2022/08/25 13:18:27;;;;;;;1.93;1.83;;;35.70;79.00;;;;;;5047751;28;20052;-39
2022/08/25 13:21:27;;;;;;;5.50;1.60;;;35.70;78.50;;;;;;5053123;28;20547;-39